Weather at Bradford Regional Airport

Public forecast

Using degrees Fahrenheit for public forecast. Weather courtesy of forecast.io.

Current aviation weather report (METAR) for Bradford Regional Airport

2024/07/24 22:53 (retrieved 43 minutes ago)

KBFD 242253Z AUTO 25004KT 10SM FEW028 24/21 A3010 RMK AO2 SLP176 T02390206

Aviation forecast (TAF) for Bradford Regional Airport

2024/07/24 21:18 Ammendment (retrieved 2 hours ago)

TAF AMD KBFD 242116Z 2421/2518 26007KT P6SM VCTS BKN050CB FM250000 28004KT P6SM BKN100 FM250700 VRB02KT 4SM BR OVC015 FM250800 00000KT 4SM BR OVC007 FM251200 31003KT P6SM OVC015 FM251300 31005KT P6SM SCT035